sensor_id;sensor_type;location;lat;lon;timestamp;P1;durP1;ratioP1;P2;durP2;ratioP2
10729;SDS011;5416;59.258;18.128;2022-07-29T05:10:31;4.33;;;4.23;;
10729;SDS011;5416;59.258;18.128;2022-07-29T05:13:03;4.45;;;4.35;;
10729;SDS011;5416;59.258;18.128;2022-07-29T05:15:30;4.07;;;3.97;;
10729;SDS011;5416;59.258;18.128;2022-07-29T05:17:57;4.20;;;4.10;;
10729;SDS011;5416;59.258;18.128;2022-07-29T05:20:24;3.90;;;3.80;;
10729;SDS011;5416;59.258;18.128;2022-07-29T05:22:53;3.90;;;3.80;;
10729;SDS011;5416;59.258;18.128;2022-07-29T05:25:20;3.80;;;3.70;;
10729;SDS011;5416;59.258;18.128;2022-07-29T05:27:49;3.47;;;3.38;;
10729;SDS011;5416;59.258;18.128;2022-07-29T05:30:16;3.70;;;3.60;;
10729;SDS011;5416;59.258;18.128;2022-07-29T05:32:44;3.60;;;3.50;;
10729;SDS011;5416;59.258;18.128;2022-07-29T05:35:11;3.65;;;3.55;;
10729;SDS011;5416;59.258;18.128;2022-07-29T05:37:38;3.50;;;3.40;;
10729;SDS011;5416;59.258;18.128;2022-07-29T05:40:06;3.53;;;3.43;;
10729;SDS011;5416;59.258;18.128;2022-07-29T05:42:33;3.20;;;3.10;;
10729;SDS011;5416;59.258;18.128;2022-07-29T05:45:03;3.20;;;3.10;;
10729;SDS011;5416;59.258;18.128;2022-07-29T05:47:30;3.22;;;3.13;;
10729;SDS011;5416;59.258;18.128;2022-07-29T05:49:57;3.03;;;2.92;;
10729;SDS011;5416;59.258;18.128;2022-07-29T05:52:24;3.30;;;3.20;;
10729;SDS011;5416;59.258;18.128;2022-07-29T05:54:52;2.88;;;2.78;;
10729;SDS011;5416;59.258;18.128;2022-07-29T05:57:20;2.90;;;2.80;;
10729;SDS011;5416;59.258;18.128;2022-07-29T05:59:47;2.92;;;2.83;;
10729;SDS011;5416;59.258;18.128;2022-07-29T06:02:16;2.90;;;2.80;;
10729;SDS011;5416;59.258;18.128;2022-07-29T06:04:44;2.83;;;2.72;;
10729;SDS011;5416;59.258;18.128;2022-07-29T06:07:11;2.80;;;2.70;;
10729;SDS011;5416;59.258;18.128;2022-07-29T06:09:38;2.90;;;2.80;;
10729;SDS011;5416;59.258;18.128;2022-07-29T06:12:06;3.00;;;2.90;;
10729;SDS011;5416;59.258;18.128;2022-07-29T06:14:33;2.75;;;2.65;;
10729;SDS011;5416;59.258;18.128;2022-07-29T06:17:00;2.80;;;2.70;;
10729;SDS011;5416;59.258;18.128;2022-07-29T06:19:29;2.70;;;2.60;;
10729;SDS011;5416;59.258;18.128;2022-07-29T06:21:56;2.90;;;2.80;;
10729;SDS011;5416;59.258;18.128;2022-07-29T06:24:24;3.10;;;3.00;;
10729;SDS011;5416;59.258;18.128;2022-07-29T06:26:52;2.80;;;2.70;;
10729;SDS011;5416;59.258;18.128;2022-07-29T06:29:19;2.90;;;2.80;;
10729;SDS011;5416;59.258;18.128;2022-07-29T06:31:46;2.67;;;2.58;;
10729;SDS011;5416;59.258;18.128;2022-07-29T06:34:13;2.92;;;2.83;;
10729;SDS011;5416;59.258;18.128;2022-07-29T06:36:42;2.77;;;2.67;;
10729;SDS011;5416;59.258;18.128;2022-07-29T06:39:10;2.60;;;2.50;;
10729;SDS011;5416;59.258;18.128;2022-07-29T06:41:37;2.80;;;2.70;;
10729;SDS011;5416;59.258;18.128;2022-07-29T06:44:04;2.70;;;2.60;;
10729;SDS011;5416;59.258;18.128;2022-07-29T06:46:31;2.78;;;2.67;;
10729;SDS011;5416;59.258;18.128;2022-07-29T06:48:59;3.00;;;2.90;;
10729;SDS011;5416;59.258;18.128;2022-07-29T06:51:27;2.75;;;2.65;;
10729;SDS011;5416;59.258;18.128;2022-07-29T06:53:56;2.60;;;2.50;;
10729;SDS011;5416;59.258;18.128;2022-07-29T06:56:23;2.33;;;2.22;;
10729;SDS011;5416;59.258;18.128;2022-07-29T06:58:51;2.50;;;2.40;;
10729;SDS011;5416;59.258;18.128;2022-07-29T07:01:18;2.20;;;2.10;;
10729;SDS011;5416;59.258;18.128;2022-07-29T07:03:45;2.37;;;2.27;;
10729;SDS011;5416;59.258;18.128;2022-07-29T07:06:13;2.40;;;2.30;;
10729;SDS011;5416;59.258;18.128;2022-07-29T07:08:40;2.30;;;2.20;;
10729;SDS011;5416;59.258;18.128;2022-07-29T07:11:09;2.40;;;2.30;;
10729;SDS011;5416;59.258;18.128;2022-07-29T07:13:36;2.25;;;2.15;;
10729;SDS011;5416;59.258;18.128;2022-07-29T07:16:04;2.30;;;2.20;;
10729;SDS011;5416;59.258;18.128;2022-07-29T07:18:31;2.30;;;2.20;;
10729;SDS011;5416;59.258;18.128;2022-07-29T07:20:58;2.20;;;2.10;;
10729;SDS011;5416;59.258;18.128;2022-07-29T07:23:26;2.00;;;2.00;;
10729;SDS011;5416;59.258;18.128;2022-07-29T07:25:53;2.00;;;2.00;;
10729;SDS011;5416;59.258;18.128;2022-07-29T07:28:22;2.00;;;2.00;;
10729;SDS011;5416;59.258;18.128;2022-07-29T07:30:49;2.00;;;2.00;;
10729;SDS011;5416;59.258;18.128;2022-07-29T07:33:16;2.05;;;2.05;;
10729;SDS011;5416;59.258;18.128;2022-07-29T07:35:44;1.90;;;1.90;;
10729;SDS011;5416;59.258;18.128;2022-07-29T07:38:11;2.00;;;2.00;;
10729;SDS011;5416;59.258;18.128;2022-07-29T07:40:38;2.00;;;2.00;;
10729;SDS011;5416;59.258;18.128;2022-07-29T07:43:06;2.10;;;2.10;;
10729;SDS011;5416;59.258;18.128;2022-07-29T07:45:35;2.00;;;2.00;;
10729;SDS011;5416;59.258;18.128;2022-07-29T07:48:02;2.08;;;2.08;;
10729;SDS011;5416;59.258;18.128;2022-07-29T07:50:29;2.10;;;2.10;;
10729;SDS011;5416;59.258;18.128;2022-07-29T07:52:57;1.90;;;1.90;;
10729;SDS011;5416;59.258;18.128;2022-07-29T07:55:26;2.10;;;2.10;;
10729;SDS011;5416;59.258;18.128;2022-07-29T07:57:53;1.92;;;1.92;;
10729;SDS011;5416;59.258;18.128;2022-07-29T08:00:21;2.30;;;2.20;;
10729;SDS011;5416;59.258;18.128;2022-07-29T08:02:50;2.33;;;2.23;;
10729;SDS011;5416;59.258;18.128;2022-07-29T08:05:17;2.40;;;2.30;;
10729;SDS011;5416;59.258;18.128;2022-07-29T08:07:45;2.33;;;2.22;;
10729;SDS011;5416;59.258;18.128;2022-07-29T08:10:12;2.87;;;2.77;;
10729;SDS011;5416;59.258;18.128;2022-07-29T08:12:40;3.00;;;2.90;;
10729;SDS011;5416;59.258;18.128;2022-07-29T08:15:08;3.20;;;3.10;;
10729;SDS011;5416;59.258;18.128;2022-07-29T08:17:35;3.20;;;3.10;;
10729;SDS011;5416;59.258;18.128;2022-07-29T08:20:04;3.42;;;3.33;;
10729;SDS011;5416;59.258;18.128;2022-07-29T08:22:32;3.60;;;3.50;;
10729;SDS011;5416;59.258;18.128;2022-07-29T08:24:59;3.50;;;3.40;;
10729;SDS011;5416;59.258;18.128;2022-07-29T08:27:26;3.13;;;3.03;;
10729;SDS011;5416;59.258;18.128;2022-07-29T08:29:56;3.10;;;3.00;;
10729;SDS011;5416;59.258;18.128;2022-07-29T08:32:23;3.17;;;3.08;;
10729;SDS011;5416;59.258;18.128;2022-07-29T08:34:50;3.00;;;2.90;;
10729;SDS011;5416;59.258;18.128;2022-07-29T08:37:19;2.70;;;2.60;;
10729;SDS011;5416;59.258;18.128;2022-07-29T08:39:46;2.40;;;2.30;;
10729;SDS011;5416;59.258;18.128;2022-07-29T08:42:14;2.50;;;2.40;;
10729;SDS011;5416;59.258;18.128;2022-07-29T08:44:42;1.87;;;1.87;;
10729;SDS011;5416;59.258;18.128;2022-07-29T08:47:09;1.70;;;1.70;;
10729;SDS011;5416;59.258;18.128;2022-07-29T08:49:37;1.70;;;1.70;;
10729;SDS011;5416;59.258;18.128;2022-07-29T08:52:04;1.70;;;1.70;;
10729;SDS011;5416;59.258;18.128;2022-07-29T08:54:33;1.70;;;1.70;;
10729;SDS011;5416;59.258;18.128;2022-07-29T08:57:00;1.45;;;1.45;;
10729;SDS011;5416;59.258;18.128;2022-07-29T08:59:29;1.40;;;1.40;;
10729;SDS011;5416;59.258;18.128;2022-07-29T09:01:57;1.30;;;1.30;;
10729;SDS011;5416;59.258;18.128;2022-07-29T09:04:26;1.30;;;1.30;;
10729;SDS011;5416;59.258;18.128;2022-07-29T09:06:54;1.40;;;1.40;;
10729;SDS011;5416;59.258;18.128;2022-07-29T09:09:23;1.40;;;1.40;;
10729;SDS011;5416;59.258;18.128;2022-07-29T09:11:52;1.52;;;1.52;;
10729;SDS011;5416;59.258;18.128;2022-07-29T09:14:20;2.00;;;2.00;;
10729;SDS011;5416;59.258;18.128;2022-07-29T09:16:48;2.38;;;2.28;;
10729;SDS011;5416;59.258;18.128;2022-07-29T09:19:22;2.30;;;2.20;;
10729;SDS011;5416;59.258;18.128;2022-07-29T09:21:49;1.90;;;1.90;;
10729;SDS011;5416;59.258;18.128;2022-07-29T09:24:28;1.90;;;1.90;;
10729;SDS011;5416;59.258;18.128;2022-07-29T09:27:06;1.97;;;1.97;;
10729;SDS011;5416;59.258;18.128;2022-07-29T09:29:35;1.80;;;1.80;;
10729;SDS011;5416;59.258;18.128;2022-07-29T09:32:05;1.63;;;1.63;;
10729;SDS011;5416;59.258;18.128;2022-07-29T09:34:33;1.60;;;1.60;;
10729;SDS011;5416;59.258;18.128;2022-07-29T09:37:00;1.70;;;1.70;;
10729;SDS011;5416;59.258;18.128;2022-07-29T09:39:28;1.50;;;1.50;;
10729;SDS011;5416;59.258;18.128;2022-07-29T09:41:57;1.70;;;1.70;;
10729;SDS011;5416;59.258;18.128;2022-07-29T09:44:26;1.67;;;1.67;;
10729;SDS011;5416;59.258;18.128;2022-07-29T09:46:56;1.80;;;1.80;;
10729;SDS011;5416;59.258;18.128;2022-07-29T09:49:24;2.00;;;2.00;;
10729;SDS011;5416;59.258;18.128;2022-07-29T09:52:03;2.40;;;2.30;;
10729;SDS011;5416;59.258;18.128;2022-07-29T09:54:31;2.70;;;2.60;;
10729;SDS011;5416;59.258;18.128;2022-07-29T09:57:02;2.40;;;2.30;;
10729;SDS011;5416;59.258;18.128;2022-07-29T09:59:31;2.10;;;2.10;;
10729;SDS011;5416;59.258;18.128;2022-07-29T10:01:59;2.42;;;2.33;;
10729;SDS011;5416;59.258;18.128;2022-07-29T10:04:36;2.30;;;2.20;;
10729;SDS011;5416;59.258;18.128;2022-07-29T10:07:04;2.50;;;2.40;;
10729;SDS011;5416;59.258;18.128;2022-07-29T10:09:31;2.60;;;2.50;;
10729;SDS011;5416;59.258;18.128;2022-07-29T10:12:03;3.00;;;2.90;;
10729;SDS011;5416;59.258;18.128;2022-07-29T10:14:32;3.40;;;3.30;;
10729;SDS011;5416;59.258;18.128;2022-07-29T10:16:59;3.57;;;3.47;;
10729;SDS011;5416;59.258;18.128;2022-07-29T10:19:27;3.70;;;3.60;;
10729;SDS011;5416;59.258;18.128;2022-07-29T10:21:56;3.90;;;3.80;;
10729;SDS011;5416;59.258;18.128;2022-07-29T10:24:24;3.90;;;3.80;;
10729;SDS011;5416;59.258;18.128;2022-07-29T10:26:51;4.50;;;4.40;;
10729;SDS011;5416;59.258;18.128;2022-07-29T10:29:19;4.20;;;4.10;;
10729;SDS011;5416;59.258;18.128;2022-07-29T10:31:49;4.05;;;3.95;;
10729;SDS011;5416;59.258;18.128;2022-07-29T10:34:20;4.23;;;4.13;;
10729;SDS011;5416;59.258;18.128;2022-07-29T10:36:52;3.92;;;3.83;;
10729;SDS011;5416;59.258;18.128;2022-07-29T10:39:25;3.80;;;3.70;;
10729;SDS011;5416;59.258;18.128;2022-07-29T10:42:11;3.30;;;3.20;;
10729;SDS011;5416;59.258;18.128;2022-07-29T10:44:39;3.10;;;3.00;;
10729;SDS011;5416;59.258;18.128;2022-07-29T10:47:08;3.20;;;3.10;;
10729;SDS011;5416;59.258;18.128;2022-07-29T10:49:54;3.08;;;2.97;;
10729;SDS011;5416;59.258;18.128;2022-07-29T10:52:22;3.17;;;3.07;;
10729;SDS011;5416;59.258;18.128;2022-07-29T10:54:52;3.40;;;3.30;;
10729;SDS011;5416;59.258;18.128;2022-07-29T10:57:24;3.80;;;3.70;;
10729;SDS011;5416;59.258;18.128;2022-07-29T11:02:44;3.57;;;3.47;;
10729;SDS011;5416;59.258;18.128;2022-07-29T11:05:13;3.53;;;3.42;;
10729;SDS011;5416;59.258;18.128;2022-07-29T11:10:24;3.35;;;3.25;;
10729;SDS011;5416;59.258;18.128;2022-07-29T11:12:51;3.00;;;2.90;;
10729;SDS011;5416;59.258;18.128;2022-07-29T11:15:20;2.80;;;2.70;;
10729;SDS011;5416;59.258;18.128;2022-07-29T11:18:05;2.78;;;2.67;;
10729;SDS011;5416;59.258;18.128;2022-07-29T11:20:36;2.90;;;2.80;;
10729;SDS011;5416;59.258;18.128;2022-07-29T11:23:17;2.60;;;2.50;;
10729;SDS011;5416;59.258;18.128;2022-07-29T11:25:44;2.40;;;2.30;;
10729;SDS011;5416;59.258;18.128;2022-07-29T11:28:13;2.63;;;2.53;;
10729;SDS011;5416;59.258;18.128;2022-07-29T11:30:49;2.55;;;2.45;;
10729;SDS011;5416;59.258;18.128;2022-07-29T11:36:09;2.70;;;2.60;;
10729;SDS011;5416;59.258;18.128;2022-07-29T11:38:37;2.90;;;2.80;;
10729;SDS011;5416;59.258;18.128;2022-07-29T11:41:19;3.10;;;3.00;;
10729;SDS011;5416;59.258;18.128;2022-07-29T11:43:46;3.13;;;3.03;;
10729;SDS011;5416;59.258;18.128;2022-07-29T11:46:14;3.40;;;3.30;;
10729;SDS011;5416;59.258;18.128;2022-07-29T11:48:41;3.60;;;3.50;;
10729;SDS011;5416;59.258;18.128;2022-07-29T11:51:11;3.60;;;3.50;;
10729;SDS011;5416;59.258;18.128;2022-07-29T11:53:38;3.65;;;3.55;;
10729;SDS011;5416;59.258;18.128;2022-07-29T11:56:07;4.25;;;4.15;;
10729;SDS011;5416;59.258;18.128;2022-07-29T11:58:35;4.07;;;3.97;;
10729;SDS011;5416;59.258;18.128;2022-07-29T12:01:03;4.70;;;4.50;;
10729;SDS011;5416;59.258;18.128;2022-07-29T12:03:31;3.97;;;3.88;;
10729;SDS011;5416;59.258;18.128;2022-07-29T12:05:59;4.28;;;4.07;;
10729;SDS011;5416;59.258;18.128;2022-07-29T12:08:28;4.00;;;3.90;;
10729;SDS011;5416;59.258;18.128;2022-07-29T12:10:56;3.80;;;3.70;;
10729;SDS011;5416;59.258;18.128;2022-07-29T12:13:25;3.55;;;3.45;;
10729;SDS011;5416;59.258;18.128;2022-07-29T12:16:05;3.90;;;3.80;;
10729;SDS011;5416;59.258;18.128;2022-07-29T12:18:32;3.50;;;3.40;;
10729;SDS011;5416;59.258;18.128;2022-07-29T12:21:00;3.42;;;3.33;;
10729;SDS011;5416;59.258;18.128;2022-07-29T12:23:30;3.50;;;3.40;;
10729;SDS011;5416;59.258;18.128;2022-07-29T12:25:57;3.60;;;3.50;;
10729;SDS011;5416;59.258;18.128;2022-07-29T12:28:25;3.93;;;3.83;;
10729;SDS011;5416;59.258;18.128;2022-07-29T12:30:52;4.30;;;4.20;;
10729;SDS011;5416;59.258;18.128;2022-07-29T12:33:20;4.07;;;3.97;;
10729;SDS011;5416;59.258;18.128;2022-07-29T12:35:49;4.50;;;4.40;;
10729;SDS011;5416;59.258;18.128;2022-07-29T12:38:17;4.20;;;4.10;;
10729;SDS011;5416;59.258;18.128;2022-07-29T12:40:46;3.70;;;3.60;;
10729;SDS011;5416;59.258;18.128;2022-07-29T12:43:14;3.60;;;3.50;;
10729;SDS011;5416;59.258;18.128;2022-07-29T12:45:43;3.53;;;3.42;;
10729;SDS011;5416;59.258;18.128;2022-07-29T12:48:11;3.97;;;3.88;;
10729;SDS011;5416;59.258;18.128;2022-07-29T12:53:20;4.05;;;3.95;;
10729;SDS011;5416;59.258;18.128;2022-07-29T12:55:50;4.13;;;4.03;;
10729;SDS011;5416;59.258;18.128;2022-07-29T12:58:31;4.18;;;4.07;;
10729;SDS011;5416;59.258;18.128;2022-07-29T13:01:03;3.90;;;3.80;;
10729;SDS011;5416;59.258;18.128;2022-07-29T13:03:41;3.93;;;3.83;;
10729;SDS011;5416;59.258;18.128;2022-07-29T13:08:58;4.07;;;3.97;;
10729;SDS011;5416;59.258;18.128;2022-07-29T13:11:30;4.70;;;4.50;;
10729;SDS011;5416;59.258;18.128;2022-07-29T13:13:57;3.95;;;3.85;;
10729;SDS011;5416;59.258;18.128;2022-07-29T13:16:25;4.88;;;4.68;;
10729;SDS011;5416;59.258;18.128;2022-07-29T13:21:34;4.35;;;4.25;;
10729;SDS011;5416;59.258;18.128;2022-07-29T13:24:02;4.57;;;4.40;;
10729;SDS011;5416;59.258;18.128;2022-07-29T13:26:31;4.30;;;4.20;;
10729;SDS011;5416;59.258;18.128;2022-07-29T13:28:59;4.55;;;4.43;;
10729;SDS011;5416;59.258;18.128;2022-07-29T13:31:26;4.60;;;4.45;;
10729;SDS011;5416;59.258;18.128;2022-07-29T13:33:53;4.50;;;4.40;;
10729;SDS011;5416;59.258;18.128;2022-07-29T13:36:21;4.77;;;4.57;;
10729;SDS011;5416;59.258;18.128;2022-07-29T13:38:48;4.93;;;4.72;;
10729;SDS011;5416;59.258;18.128;2022-07-29T13:41:16;4.38;;;4.28;;
10729;SDS011;5416;59.258;18.128;2022-07-29T13:43:44;4.80;;;4.60;;
10729;SDS011;5416;59.258;18.128;2022-07-29T13:46:12;4.73;;;4.53;;
10729;SDS011;5416;59.258;18.128;2022-07-29T13:48:39;4.53;;;4.43;;
10729;SDS011;5416;59.258;18.128;2022-07-29T13:51:06;4.32;;;4.22;;
10729;SDS011;5416;59.258;18.128;2022-07-29T13:53:34;4.27;;;4.17;;
10729;SDS011;5416;59.258;18.128;2022-07-29T13:56:01;4.38;;;4.28;;
10729;SDS011;5416;59.258;18.128;2022-07-29T13:58:31;4.45;;;4.35;;
10729;SDS011;5416;59.258;18.128;2022-07-29T14:00:59;4.32;;;4.22;;
10729;SDS011;5416;59.258;18.128;2022-07-29T14:03:27;5.13;;;4.93;;
10729;SDS011;5416;59.258;18.128;2022-07-29T14:05:54;4.50;;;4.40;;
10729;SDS011;5416;59.258;18.128;2022-07-29T14:08:24;5.00;;;4.80;;
10729;SDS011;5416;59.258;18.128;2022-07-29T14:10:52;4.57;;;4.43;;
10729;SDS011;5416;59.258;18.128;2022-07-29T14:13:19;4.93;;;4.72;;
10729;SDS011;5416;59.258;18.128;2022-07-29T14:15:46;4.80;;;4.60;;
10729;SDS011;5416;59.258;18.128;2022-07-29T14:18:15;4.47;;;4.38;;
10729;SDS011;5416;59.258;18.128;2022-07-29T14:20:42;4.90;;;4.70;;
10729;SDS011;5416;59.258;18.128;2022-07-29T14:23:10;4.20;;;4.10;;
10729;SDS011;5416;59.258;18.128;2022-07-29T14:25:37;4.63;;;4.50;;
10729;SDS011;5416;59.258;18.128;2022-07-29T14:28:04;4.63;;;4.50;;
10729;SDS011;5416;59.258;18.128;2022-07-29T14:30:32;4.15;;;4.05;;
10729;SDS011;5416;59.258;18.128;2022-07-29T14:32:59;4.65;;;4.47;;
10729;SDS011;5416;59.258;18.128;2022-07-29T14:35:28;4.40;;;4.30;;
10729;SDS011;5416;59.258;18.128;2022-07-29T14:37:55;4.30;;;4.20;;
10729;SDS011;5416;59.258;18.128;2022-07-29T14:40:22;4.18;;;4.07;;
10729;SDS011;5416;59.258;18.128;2022-07-29T14:42:51;5.13;;;4.93;;
10729;SDS011;5416;59.258;18.128;2022-07-29T14:45:18;4.60;;;4.50;;
10729;SDS011;5416;59.258;18.128;2022-07-29T14:47:45;4.75;;;4.55;;
10729;SDS011;5416;59.258;18.128;2022-07-29T14:50:14;4.53;;;4.43;;
10729;SDS011;5416;59.258;18.128;2022-07-29T14:52:42;4.75;;;4.55;;
10729;SDS011;5416;59.258;18.128;2022-07-29T14:55:10;4.68;;;4.47;;
10729;SDS011;5416;59.258;18.128;2022-07-29T14:57:37;4.10;;;4.00;;
10729;SDS011;5416;59.258;18.128;2022-07-29T15:00:05;4.38;;;4.28;;
10729;SDS011;5416;59.258;18.128;2022-07-29T15:02:33;4.57;;;4.45;;
10729;SDS011;5416;59.258;18.128;2022-07-29T15:05:00;4.88;;;4.68;;
10729;SDS011;5416;59.258;18.128;2022-07-29T15:07:28;5.00;;;4.80;;
10729;SDS011;5416;59.258;18.128;2022-07-29T15:09:56;4.57;;;4.47;;
10729;SDS011;5416;59.258;18.128;2022-07-29T15:12:23;4.50;;;4.40;;
10729;SDS011;5416;59.258;18.128;2022-07-29T15:14:51;4.47;;;4.37;;
10729;SDS011;5416;59.258;18.128;2022-07-29T15:17:18;4.53;;;4.43;;
10729;SDS011;5416;59.258;18.128;2022-07-29T15:19:46;4.07;;;3.97;;
10729;SDS011;5416;59.258;18.128;2022-07-29T15:22:13;4.40;;;4.30;;
10729;SDS011;5416;59.258;18.128;2022-07-29T15:24:40;4.88;;;4.68;;
10729;SDS011;5416;59.258;18.128;2022-07-29T15:27:09;4.63;;;4.50;;
10729;SDS011;5416;59.258;18.128;2022-07-29T15:29:39;4.60;;;4.50;;
10729;SDS011;5416;59.258;18.128;2022-07-29T15:32:06;4.80;;;4.60;;
10729;SDS011;5416;59.258;18.128;2022-07-29T15:34:34;4.43;;;4.32;;
10729;SDS011;5416;59.258;18.128;2022-07-29T15:37:01;5.20;;;5.00;;
10729;SDS011;5416;59.258;18.128;2022-07-29T15:39:28;4.40;;;4.30;;
10729;SDS011;5416;59.258;18.128;2022-07-29T15:41:56;4.17;;;4.07;;
10729;SDS011;5416;59.258;18.128;2022-07-29T15:44:25;4.90;;;4.70;;
10729;SDS011;5416;59.258;18.128;2022-07-29T15:46:52;4.43;;;4.32;;
10729;SDS011;5416;59.258;18.128;2022-07-29T15:49:29;4.32;;;4.22;;
10729;SDS011;5416;59.258;18.128;2022-07-29T15:51:57;4.78;;;4.57;;
10729;SDS011;5416;59.258;18.128;2022-07-29T15:54:25;4.72;;;4.55;;
10729;SDS011;5416;59.258;18.128;2022-07-29T15:56:52;4.03;;;3.92;;
10729;SDS011;5416;59.258;18.128;2022-07-29T15:59:19;4.78;;;4.57;;
10729;SDS011;5416;59.258;18.128;2022-07-29T16:01:48;4.00;;;3.90;;
10729;SDS011;5416;59.258;18.128;2022-07-29T16:04:15;4.65;;;4.50;;
10729;SDS011;5416;59.258;18.128;2022-07-29T16:06:43;4.70;;;4.50;;
10729;SDS011;5416;59.258;18.128;2022-07-29T16:09:11;4.82;;;4.63;;
10729;SDS011;5416;59.258;18.128;2022-07-29T16:11:39;4.40;;;4.30;;
10729;SDS011;5416;59.258;18.128;2022-07-29T16:14:06;4.45;;;4.35;;
10729;SDS011;5416;59.258;18.128;2022-07-29T16:16:33;4.95;;;4.75;;
10729;SDS011;5416;59.258;18.128;2022-07-29T16:19:02;4.88;;;4.68;;
10729;SDS011;5416;59.258;18.128;2022-07-29T16:21:30;4.53;;;4.43;;
10729;SDS011;5416;59.258;18.128;2022-07-29T16:23:59;4.40;;;4.30;;
10729;SDS011;5416;59.258;18.128;2022-07-29T16:26:27;4.70;;;4.50;;
10729;SDS011;5416;59.258;18.128;2022-07-29T16:28:54;5.00;;;4.80;;
10729;SDS011;5416;59.258;18.128;2022-07-29T16:31:21;4.80;;;4.60;;
10729;SDS011;5416;59.258;18.128;2022-07-29T16:33:49;3.95;;;3.85;;
10729;SDS011;5416;59.258;18.128;2022-07-29T16:36:17;4.55;;;4.45;;
10729;SDS011;5416;59.258;18.128;2022-07-29T16:38:45;5.00;;;4.80;;
10729;SDS011;5416;59.258;18.128;2022-07-29T16:41:12;4.78;;;4.60;;
10729;SDS011;5416;59.258;18.128;2022-07-29T16:43:40;4.87;;;4.67;;
10729;SDS011;5416;59.258;18.128;2022-07-29T16:46:07;4.78;;;4.57;;
10729;SDS011;5416;59.258;18.128;2022-07-29T16:48:34;4.65;;;4.50;;
10729;SDS011;5416;59.258;18.128;2022-07-29T16:51:02;4.73;;;4.57;;
10729;SDS011;5416;59.258;18.128;2022-07-29T16:53:31;4.78;;;4.57;;
10729;SDS011;5416;59.258;18.128;2022-07-29T16:55:59;4.38;;;4.28;;
10729;SDS011;5416;59.258;18.128;2022-07-29T16:58:26;4.82;;;4.63;;
10729;SDS011;5416;59.258;18.128;2022-07-29T17:00:54;4.45;;;4.35;;
10729;SDS011;5416;59.258;18.128;2022-07-29T17:03:21;4.70;;;4.57;;
10729;SDS011;5416;59.258;18.128;2022-07-29T17:05:48;4.47;;;4.38;;
10729;SDS011;5416;59.258;18.128;2022-07-29T17:08:16;4.47;;;4.38;;
10729;SDS011;5416;59.258;18.128;2022-07-29T17:10:44;4.20;;;4.10;;
10729;SDS011;5416;59.258;18.128;2022-07-29T17:13:11;4.40;;;4.30;;
10729;SDS011;5416;59.258;18.128;2022-07-29T17:15:39;4.80;;;4.60;;
10729;SDS011;5416;59.258;18.128;2022-07-29T17:18:08;4.80;;;4.60;;
10729;SDS011;5416;59.258;18.128;2022-07-29T17:20:35;4.47;;;4.38;;
10729;SDS011;5416;59.258;18.128;2022-07-29T17:23:03;5.00;;;4.80;;
10729;SDS011;5416;59.258;18.128;2022-07-29T17:25:30;5.60;;;5.40;;
10729;SDS011;5416;59.258;18.128;2022-07-29T17:27:59;5.32;;;5.13;;
10729;SDS011;5416;59.258;18.128;2022-07-29T17:30:26;5.27;;;5.07;;
10729;SDS011;5416;59.258;18.128;2022-07-29T17:32:53;4.82;;;4.63;;
10729;SDS011;5416;59.258;18.128;2022-07-29T17:35:20;5.00;;;4.80;;
10729;SDS011;5416;59.258;18.128;2022-07-29T17:38:05;4.93;;;4.72;;
10729;SDS011;5416;59.258;18.128;2022-07-29T17:40:33;4.67;;;4.53;;
10729;SDS011;5416;59.258;18.128;2022-07-29T17:43:01;5.45;;;5.25;;
10729;SDS011;5416;59.258;18.128;2022-07-29T17:45:29;5.53;;;5.32;;
10729;SDS011;5416;59.258;18.128;2022-07-29T17:47:56;5.73;;;5.53;;
10729;SDS011;5416;59.258;18.128;2022-07-29T17:50:23;5.07;;;4.88;;
10729;SDS011;5416;59.258;18.128;2022-07-29T17:52:51;4.82;;;4.63;;
10729;SDS011;5416;59.258;18.128;2022-07-29T17:55:18;4.68;;;4.50;;
10729;SDS011;5416;59.258;18.128;2022-07-29T17:57:45;4.63;;;4.47;;
10729;SDS011;5416;59.258;18.128;2022-07-29T18:00:14;5.03;;;4.82;;
10729;SDS011;5416;59.258;18.128;2022-07-29T18:02:42;5.17;;;4.97;;
10729;SDS011;5416;59.258;18.128;2022-07-29T18:05:09;5.40;;;5.20;;
10729;SDS011;5416;59.258;18.128;2022-07-29T18:07:37;5.13;;;4.93;;
10729;SDS011;5416;59.258;18.128;2022-07-29T18:10:04;4.97;;;4.78;;
10729;SDS011;5416;59.258;18.128;2022-07-29T18:12:32;5.13;;;4.93;;
10729;SDS011;5416;59.258;18.128;2022-07-29T18:14:59;5.10;;;4.90;;
10729;SDS011;5416;59.258;18.128;2022-07-29T18:17:27;4.87;;;4.67;;
10729;SDS011;5416;59.258;18.128;2022-07-29T18:19:55;4.53;;;4.43;;
10729;SDS011;5416;59.258;18.128;2022-07-29T18:22:22;4.60;;;4.50;;
10729;SDS011;5416;59.258;18.128;2022-07-29T18:24:49;4.80;;;4.60;;
10729;SDS011;5416;59.258;18.128;2022-07-29T18:27:16;4.47;;;4.38;;
10729;SDS011;5416;59.258;18.128;2022-07-29T18:29:44;5.00;;;4.80;;
10729;SDS011;5416;59.258;18.128;2022-07-29T18:32:11;4.97;;;4.78;;
10729;SDS011;5416;59.258;18.128;2022-07-29T18:34:40;5.15;;;4.95;;
10729;SDS011;5416;59.258;18.128;2022-07-29T18:37:07;4.82;;;4.63;;
10729;SDS011;5416;59.258;18.128;2022-07-29T18:39:34;5.07;;;4.88;;
10729;SDS011;5416;59.258;18.128;2022-07-29T18:42:02;4.47;;;4.38;;
10729;SDS011;5416;59.258;18.128;2022-07-29T18:44:29;4.85;;;4.65;;
10729;SDS011;5416;59.258;18.128;2022-07-29T18:46:57;4.30;;;4.20;;
10729;SDS011;5416;59.258;18.128;2022-07-29T18:49:24;4.47;;;4.38;;
10729;SDS011;5416;59.258;18.128;2022-07-29T18:51:53;4.80;;;4.60;;
10729;SDS011;5416;59.258;18.128;2022-07-29T18:54:21;4.75;;;4.55;;
10729;SDS011;5416;59.258;18.128;2022-07-29T18:56:49;4.45;;;4.35;;
10729;SDS011;5416;59.258;18.128;2022-07-29T18:59:16;4.90;;;4.70;;
10729;SDS011;5416;59.258;18.128;2022-07-29T19:01:45;5.28;;;5.07;;
10729;SDS011;5416;59.258;18.128;2022-07-29T19:04:12;5.00;;;4.80;;
10729;SDS011;5416;59.258;18.128;2022-07-29T19:06:39;5.17;;;4.97;;
10729;SDS011;5416;59.258;18.128;2022-07-29T19:09:08;5.20;;;5.00;;
10729;SDS011;5416;59.258;18.128;2022-07-29T19:11:36;5.03;;;4.82;;
10729;SDS011;5416;59.258;18.128;2022-07-29T19:14:03;4.38;;;4.28;;
10729;SDS011;5416;59.258;18.128;2022-07-29T19:16:31;5.00;;;4.80;;
10729;SDS011;5416;59.258;18.128;2022-07-29T19:18:58;4.90;;;4.70;;
10729;SDS011;5416;59.258;18.128;2022-07-29T19:21:26;5.22;;;5.03;;
10729;SDS011;5416;59.258;18.128;2022-07-29T19:23:53;4.35;;;4.25;;
10729;SDS011;5416;59.258;18.128;2022-07-29T19:26:22;4.18;;;4.07;;
10729;SDS011;5416;59.258;18.128;2022-07-29T19:28:49;4.85;;;4.65;;
10729;SDS011;5416;59.258;18.128;2022-07-29T19:31:17;4.97;;;4.78;;
10729;SDS011;5416;59.258;18.128;2022-07-29T19:33:44;4.57;;;4.47;;
10729;SDS011;5416;59.258;18.128;2022-07-29T19:36:11;4.90;;;4.70;;
10729;SDS011;5416;59.258;18.128;2022-07-29T19:38:38;5.22;;;5.03;;
10729;SDS011;5416;59.258;18.128;2022-07-29T19:41:06;5.30;;;5.10;;
10729;SDS011;5416;59.258;18.128;2022-07-29T19:43:34;4.70;;;4.53;;
10729;SDS011;5416;59.258;18.128;2022-07-29T19:46:02;4.60;;;4.50;;
10729;SDS011;5416;59.258;18.128;2022-07-29T19:48:29;5.30;;;5.10;;
10729;SDS011;5416;59.258;18.128;2022-07-29T19:50:57;4.60;;;4.50;;
10729;SDS011;5416;59.258;18.128;2022-07-29T19:53:24;5.00;;;4.80;;
10729;SDS011;5416;59.258;18.128;2022-07-29T19:55:51;5.65;;;5.45;;
10729;SDS011;5416;59.258;18.128;2022-07-29T19:58:18;4.00;;;3.90;;
10729;SDS011;5416;59.258;18.128;2022-07-29T20:00:47;5.03;;;4.82;;
10729;SDS011;5416;59.258;18.128;2022-07-29T20:03:14;5.28;;;5.07;;
10729;SDS011;5416;59.258;18.128;2022-07-29T20:05:42;4.82;;;4.63;;
10729;SDS011;5416;59.258;18.128;2022-07-29T20:08:09;4.55;;;4.45;;
10729;SDS011;5416;59.258;18.128;2022-07-29T20:10:36;4.67;;;4.47;;
10729;SDS011;5416;59.258;18.128;2022-07-29T20:13:04;4.50;;;4.40;;
10729;SDS011;5416;59.258;18.128;2022-07-29T20:15:31;4.57;;;4.47;;
10729;SDS011;5416;59.258;18.128;2022-07-29T20:17:59;4.25;;;4.15;;
10729;SDS011;5416;59.258;18.128;2022-07-29T20:20:27;3.88;;;3.78;;